METAR Data
IDs: Format: Raw Decoded Include TAF

Data at: 2337 UTC 25 Jun 2019

METAR for:KELA (Eagle Lake Arpt, TX, US)
Text:KELA 252315Z AUTO 17010KT 10SM SCT075 BKN095 26/24 A3001 RMK AO2 T02600235
Temperature: 26.0°C ( 79°F)
Dewpoint: 23.5°C ( 74°F) [RH = 86%]
Pressure (altimeter):30.01 inches Hg (1016.3 mb)
Winds:from the S (170 degrees) at 12 MPH (10 knots; 5.1 m/s)
Visibility:10 or more sm (16+ km)
Ceiling:9500 feet AGL
Clouds: scattered clouds at 7500 feet AGL, broken clouds at 9500 feet AGL
QC Flag:automated observation with no human augmentation

TAF for:KELA (Eagle Lake Arpt, TX, US)
Text:No data found